createdAt,value
2018-09-02T00:01:28.468Z,16.40
2018-09-02T00:05:32.182Z,16.40
2018-09-02T00:09:35.889Z,16.30
2018-09-02T00:13:39.556Z,16.30
2018-09-02T00:17:43.240Z,16.30
2018-09-02T00:21:46.908Z,16.30
2018-09-02T00:25:50.607Z,16.20
2018-09-02T00:29:54.331Z,16.20
2018-09-02T00:33:58.048Z,16.20
2018-09-02T00:38:01.798Z,16.10
2018-09-02T00:42:05.523Z,16.10
2018-09-02T00:46:09.242Z,16.00
2018-09-02T00:50:13.025Z,16.00
2018-09-02T00:54:16.687Z,16.00
2018-09-02T00:58:20.376Z,15.90
2018-09-02T01:02:24.100Z,15.90
2018-09-02T01:06:27.876Z,15.80
2018-09-02T01:10:31.570Z,15.80
2018-09-02T01:14:35.340Z,15.80
2018-09-02T01:18:39.037Z,15.80
2018-09-02T01:22:42.693Z,15.80
2018-09-02T01:26:46.376Z,15.80
2018-09-02T01:30:50.136Z,15.80
2018-09-02T01:34:53.811Z,15.70
2018-09-02T01:38:57.550Z,15.70
2018-09-02T01:43:01.204Z,15.70
2018-09-02T01:47:05.010Z,15.70
2018-09-02T01:51:11.616Z,15.70
2018-09-02T01:55:15.336Z,15.60
2018-09-02T01:59:19.020Z,15.50
2018-09-02T02:03:22.636Z,15.50
2018-09-02T02:07:26.293Z,15.40
2018-09-02T02:11:29.963Z,15.40
2018-09-02T02:15:33.605Z,15.30
2018-09-02T02:19:37.408Z,15.30
2018-09-02T02:23:41.153Z,15.20
2018-09-02T02:27:44.812Z,15.20
2018-09-02T02:31:48.458Z,15.10
2018-09-02T02:35:52.178Z,15.00
2018-09-02T02:39:55.835Z,15.00
2018-09-02T02:43:59.499Z,14.90
2018-09-02T02:48:03.166Z,14.90
2018-09-02T02:52:06.854Z,14.80
2018-09-02T02:56:10.527Z,14.80
2018-09-02T03:00:14.348Z,14.70
2018-09-02T03:04:18.004Z,14.70
2018-09-02T03:08:21.643Z,14.60
2018-09-02T03:12:25.308Z,14.50
2018-09-02T03:16:28.972Z,14.50
2018-09-02T03:20:32.631Z,14.40
2018-09-02T03:24:36.279Z,14.40
2018-09-02T03:28:39.951Z,14.30
2018-09-02T03:32:43.659Z,14.30
2018-09-02T03:36:47.381Z,14.20
2018-09-02T03:40:51.068Z,14.10
2018-09-02T03:44:54.741Z,14.10
2018-09-02T03:48:58.563Z,14.00
2018-09-02T03:53:02.346Z,14.00
2018-09-02T03:57:06.094Z,13.90
2018-09-02T04:01:09.773Z,13.80
2018-09-02T04:05:13.455Z,13.80
2018-09-02T04:09:17.121Z,13.80
2018-09-02T04:13:20.797Z,13.70
2018-09-02T04:17:24.481Z,13.70
2018-09-02T04:21:28.170Z,13.60
2018-09-02T04:25:32.603Z,13.60
2018-09-02T04:29:36.357Z,13.50
2018-09-02T04:33:40.089Z,13.50
2018-09-02T04:37:43.791Z,13.40
2018-09-02T04:41:47.512Z,13.40
2018-09-02T04:45:51.180Z,13.40
2018-09-02T04:49:54.921Z,13.30
2018-09-02T04:53:58.593Z,13.30
2018-09-02T04:58:02.273Z,13.20
2018-09-02T05:02:05.936Z,13.20
2018-09-02T05:06:09.608Z,13.20
2018-09-02T05:10:13.276Z,13.10
2018-09-02T05:14:17.092Z,13.10
2018-09-02T05:18:20.783Z,13.10
2018-09-02T05:22:24.541Z,13.10
2018-09-02T05:26:28.247Z,13.10
2018-09-02T05:30:31.949Z,13.10
2018-09-02T05:34:35.660Z,13.10
2018-09-02T05:38:39.357Z,13.10
2018-09-02T05:42:43.103Z,13.10
2018-09-02T05:46:46.762Z,13.10
2018-09-02T05:50:50.417Z,13.10
2018-09-02T05:54:54.190Z,13.10
2018-09-02T05:58:57.839Z,13.20
2018-09-02T06:03:01.603Z,13.20
2018-09-02T06:07:05.362Z,13.30
2018-09-02T06:11:09.001Z,13.30
2018-09-02T06:15:12.653Z,13.30
2018-09-02T06:19:16.317Z,13.40
2018-09-02T06:23:19.980Z,13.40
2018-09-02T06:27:23.936Z,13.50
2018-09-02T06:31:27.616Z,13.50
2018-09-02T06:35:31.310Z,13.60
2018-09-02T06:39:34.968Z,13.70
2018-09-02T06:43:38.629Z,13.80
2018-09-02T06:47:42.298Z,13.80
2018-09-02T06:51:45.954Z,13.90
2018-09-02T06:55:49.582Z,14.00
2018-09-02T06:59:53.250Z,14.10
2018-09-02T07:03:56.918Z,14.20
2018-09-02T07:08:00.559Z,14.20
2018-09-02T07:12:04.232Z,14.30
2018-09-02T07:16:08.088Z,14.40
2018-09-02T07:20:11.791Z,14.50
2018-09-02T07:24:15.450Z,14.60
2018-09-02T07:28:19.148Z,14.90
2018-09-02T07:32:22.832Z,16.40
2018-09-02T07:36:26.462Z,16.90
2018-09-02T07:40:30.148Z,18.50
2018-09-02T07:44:33.872Z,20.20
2018-09-02T07:48:37.521Z,21.60
2018-09-02T07:52:41.200Z,22.90
2018-09-02T07:56:44.815Z,24.10
2018-09-02T08:00:48.471Z,25.10
2018-09-02T08:04:52.115Z,26.00
2018-09-02T08:08:55.763Z,26.70
2018-09-02T08:12:59.511Z,27.40
2018-09-02T08:17:03.068Z,27.90
2018-09-02T08:21:06.727Z,28.40
2018-09-02T08:25:10.383Z,28.90
2018-09-02T08:29:14.092Z,29.20
2018-09-02T08:33:17.831Z,29.30
2018-09-02T08:37:21.459Z,28.80
2018-09-02T08:41:25.209Z,27.90
2018-09-02T08:45:28.868Z,26.80
2018-09-02T08:49:32.533Z,25.80
2018-09-02T08:53:36.197Z,24.90
2018-09-02T08:57:39.841Z,24.10
2018-09-02T09:01:43.561Z,23.40
2018-09-02T09:05:47.215Z,22.90
2018-09-02T09:09:50.869Z,22.40
2018-09-02T09:13:55.019Z,22.00
2018-09-02T09:17:58.680Z,21.80
2018-09-02T09:22:02.378Z,21.60
2018-09-02T09:26:06.099Z,21.20
2018-09-02T09:30:10.847Z,21.20
2018-09-02T09:34:14.506Z,21.00
2018-09-02T09:38:18.145Z,20.90
2018-09-02T09:42:21.812Z,20.90
2018-09-02T09:46:25.523Z,20.80
2018-09-02T09:50:29.196Z,20.80
2018-09-02T09:54:32.943Z,20.70
2018-09-02T09:58:36.608Z,20.60
2018-09-02T10:02:40.814Z,20.60
2018-09-02T10:06:44.624Z,20.60
2018-09-02T10:10:48.318Z,20.60
2018-09-02T10:14:51.992Z,20.60
2018-09-02T10:18:55.631Z,20.60
2018-09-02T10:22:59.360Z,20.60
2018-09-02T10:27:03.060Z,20.70
2018-09-02T10:31:06.904Z,20.70
2018-09-02T10:35:10.559Z,20.80
2018-09-02T10:39:14.212Z,20.80
2018-09-02T10:43:17.880Z,20.80
2018-09-02T10:47:21.568Z,20.80
2018-09-02T10:51:25.369Z,20.90
2018-09-02T10:55:29.063Z,20.90
2018-09-02T10:59:32.753Z,20.90
2018-09-02T11:03:36.417Z,21.00
2018-09-02T11:07:40.129Z,21.00
2018-09-02T11:11:43.817Z,21.00
2018-09-02T11:15:47.545Z,21.00
2018-09-02T11:19:51.255Z,21.10
2018-09-02T11:23:54.984Z,21.10
2018-09-02T11:27:58.732Z,21.10
2018-09-02T11:32:02.429Z,21.20
2018-09-02T11:36:06.140Z,21.30
2018-09-02T11:40:09.858Z,21.40
2018-09-02T11:44:13.540Z,21.40
2018-09-02T11:48:17.250Z,21.50
2018-09-02T11:52:20.897Z,21.50
2018-09-02T11:56:24.568Z,21.50
2018-09-02T12:00:28.278Z,21.60
2018-09-02T12:04:32.006Z,21.70
2018-09-02T12:08:35.821Z,21.80
2018-09-02T12:12:39.467Z,22.00
2018-09-02T12:16:43.183Z,22.10
2018-09-02T12:20:46.857Z,22.30
2018-09-02T12:24:50.486Z,22.50
2018-09-02T12:28:54.183Z,22.60
2018-09-02T12:32:57.908Z,22.70
2018-09-02T12:37:01.577Z,22.90
2018-09-02T12:41:05.424Z,23.10
2018-09-02T12:45:09.089Z,23.30
2018-09-02T12:49:12.780Z,23.40
2018-09-02T12:53:16.411Z,23.50
2018-09-02T12:57:20.084Z,23.60
2018-09-02T13:01:23.828Z,23.80
2018-09-02T13:05:27.483Z,24.00
2018-09-02T13:09:31.165Z,24.20
2018-09-02T13:13:34.935Z,24.40
2018-09-02T13:17:38.604Z,24.50
2018-09-02T13:21:42.354Z,24.50
2018-09-02T13:25:45.969Z,24.60
2018-09-02T13:29:49.668Z,24.70
2018-09-02T13:33:53.524Z,24.70
2018-09-02T13:37:57.059Z,24.80
2018-09-02T13:42:00.697Z,24.80
2018-09-02T13:46:04.363Z,24.80
2018-09-02T13:50:08.092Z,24.90
2018-09-02T13:54:11.772Z,24.80
2018-09-02T13:58:15.458Z,24.80
2018-09-02T14:02:19.195Z,24.80
2018-09-02T14:06:22.873Z,24.80
2018-09-02T14:10:26.539Z,24.80
2018-09-02T14:14:30.236Z,24.80
2018-09-02T14:18:33.872Z,24.90
2018-09-02T14:22:37.596Z,25.00
2018-09-02T14:26:41.373Z,25.20
2018-09-02T14:30:45.048Z,25.30
2018-09-02T14:34:48.737Z,25.40
2018-09-02T14:38:52.504Z,25.40
2018-09-02T14:42:56.184Z,25.40
2018-09-02T14:46:59.832Z,25.30
2018-09-02T14:51:03.575Z,25.30
2018-09-02T14:55:07.387Z,25.20
2018-09-02T14:59:11.008Z,25.20
2018-09-02T15:03:15.537Z,25.10
2018-09-02T15:07:19.196Z,25.00
2018-09-02T15:11:22.980Z,25.10
2018-09-02T15:15:26.644Z,24.90
2018-09-02T15:19:30.327Z,24.80
2018-09-02T15:23:34.063Z,24.70
2018-09-02T15:27:37.750Z,24.60
2018-09-02T15:31:41.490Z,24.50
2018-09-02T15:35:45.145Z,24.40
2018-09-02T15:39:48.801Z,24.30
2018-09-02T15:43:52.501Z,24.20
2018-09-02T15:47:56.164Z,24.20
2018-09-02T15:51:59.823Z,24.20
2018-09-02T15:56:03.538Z,24.10
2018-09-02T16:00:08.307Z,24.10
2018-09-02T16:04:11.964Z,24.00
2018-09-02T16:08:15.635Z,23.90
2018-09-02T16:12:19.326Z,23.90
2018-09-02T16:16:22.967Z,23.90
2018-09-02T16:20:26.652Z,23.90
2018-09-02T16:24:30.352Z,23.90
2018-09-02T16:28:34.247Z,23.90
2018-09-02T16:32:37.972Z,23.80
2018-09-02T16:36:41.627Z,23.80
2018-09-02T16:40:45.296Z,23.70
2018-09-02T16:44:49.046Z,23.60
2018-09-02T16:48:52.784Z,23.50
2018-09-02T16:52:56.502Z,23.40
2018-09-02T16:57:00.102Z,23.40
2018-09-02T17:01:03.767Z,23.40
2018-09-02T17:05:11.700Z,23.30
2018-09-02T17:09:15.357Z,23.30
2018-09-02T17:13:19.040Z,23.20
2018-09-02T17:17:22.708Z,23.10
2018-09-02T17:21:26.369Z,23.10
2018-09-02T17:25:30.055Z,23.00
2018-09-02T17:29:33.793Z,22.90
2018-09-02T17:33:37.417Z,22.90
2018-09-02T17:37:41.075Z,22.80
2018-09-02T17:41:44.738Z,22.70
2018-09-02T17:45:48.467Z,22.70
2018-09-02T17:49:52.094Z,22.60
2018-09-02T17:53:55.784Z,22.50
2018-09-02T17:57:59.606Z,22.50
2018-09-02T18:02:03.337Z,22.40
2018-09-02T18:06:07.016Z,22.30
2018-09-02T18:10:10.674Z,22.30
2018-09-02T18:14:14.302Z,22.20
2018-09-02T18:18:17.961Z,22.20
2018-09-02T18:22:21.633Z,22.10
2018-09-02T18:26:25.344Z,22.10
2018-09-02T18:30:29.020Z,22.00
2018-09-02T18:34:32.676Z,22.00
2018-09-02T18:38:36.340Z,21.90
2018-09-02T18:42:39.995Z,21.90
2018-09-02T18:46:43.734Z,21.80
2018-09-02T18:50:47.432Z,21.80
2018-09-02T18:54:51.153Z,21.70
2018-09-02T18:58:55.006Z,21.70
2018-09-02T19:02:58.723Z,21.60
2018-09-02T19:07:02.379Z,21.60
2018-09-02T19:11:06.119Z,21.60
2018-09-02T19:15:09.817Z,21.50
2018-09-02T19:19:13.479Z,21.50
2018-09-02T19:23:17.158Z,21.40
2018-09-02T19:27:20.933Z,21.40
2018-09-02T19:31:24.602Z,21.30
2018-09-02T19:35:28.269Z,21.30
2018-09-02T19:39:31.912Z,21.20
2018-09-02T19:43:35.609Z,21.10
2018-09-02T19:47:56.600Z,21.10
2018-09-02T19:52:00.297Z,21.10
2018-09-02T19:56:03.972Z,21.00
2018-09-02T20:00:09.169Z,21.00
2018-09-02T20:04:12.832Z,21.00
2018-09-02T20:08:16.479Z,21.00
